Time;durP1;ratioP1;P1;durP2;ratioP2;P2;SDS_P1;SDS_P2;PMS_P1;PMS_P2;Temp;Humidity;BMP_temperature;BMP_pressure;BME280_temperature;BME280_humidity;BME280_pressure;Samples;Min_cycle;Max_cycle;Signal;HPM_P1;HPM_P2
2022/05/22 00:02:09;;;;;;;0.00;0.00;;;10.30;99.90;;;;;;4906407;29;20423;-72
2022/05/22 00:04:36;;;;;;;0.00;0.00;;;10.20;99.90;;;;;;4906710;29;20047;-72
2022/05/22 00:07:02;;;;;;;0.00;0.00;;;10.20;99.90;;;;;;4906085;29;20052;-72
2022/05/22 00:09:28;;;;;;;0.00;0.00;;;10.10;99.90;;;;;;4906106;29;20617;-72
2022/05/22 00:11:55;;;;;;;0.00;0.00;;;10.00;99.90;;;;;;4889698;29;20052;-72
2022/05/22 00:14:21;;;;;;;0.00;0.00;;;10.00;99.90;;;;;;4905515;29;20091;-73
2022/05/22 00:16:47;;;;;;;0.00;0.00;;;10.00;99.90;;;;;;4905555;29;20104;-75
2022/05/22 00:19:15;;;;;;;0.00;0.00;;;10.00;99.90;;;;;;4906499;29;20048;-72
2022/05/22 00:21:42;;;;;;;0.00;0.00;;;10.10;99.90;;;;;;4906435;29;20103;-69
2022/05/22 00:24:09;;;;;;;0.00;0.00;;;10.10;99.90;;;;;;4906360;29;20411;-72
2022/05/22 00:26:35;;;;;;;0.00;0.00;;;10.00;99.90;;;;;;4904545;29;20051;-72
2022/05/22 00:29:01;;;;;;;0.00;0.00;;;10.20;99.90;;;;;;4906477;29;20040;-72
2022/05/22 00:31:27;;;;;;;0.00;0.00;;;10.10;99.90;;;;;;4903314;29;20092;-72
2022/05/22 00:33:53;;;;;;;0.00;0.00;;;10.10;99.90;;;;;;4905983;29;20054;-72
2022/05/22 00:36:18;;;;;;;0.00;0.00;;;10.00;99.90;;;;;;4905692;29;20419;-73
2022/05/22 00:38:44;;;;;;;0.10;0.00;;;10.10;99.90;;;;;;4905637;29;20045;-73
2022/05/22 00:41:11;;;;;;;0.00;0.00;;;10.20;99.90;;;;;;4906281;29;20045;-73
2022/05/22 00:43:40;;;;;;;0.00;0.00;;;10.10;99.90;;;;;;4904269;29;20143;-73
2022/05/22 00:46:11;;;;;;;0.00;0.00;;;10.20;99.90;;;;;;4913639;29;20091;-73
2022/05/22 00:48:38;;;;;;;0.00;0.00;;;10.10;99.90;;;;;;4889981;29;20180;-73
2022/05/22 00:51:11;;;;;;;0.00;0.00;;;10.10;99.90;;;;;;4905431;29;20400;-73
2022/05/22 00:53:42;;;;;;;0.00;0.00;;;10.10;99.90;;;;;;4888165;29;20048;-72
2022/05/22 00:56:14;;;;;;;0.00;0.00;;;10.00;99.90;;;;;;4905767;29;20048;-75
2022/05/22 00:58:40;;;;;;;0.00;0.00;;;9.90;99.90;;;;;;4905480;29;20056;-74
2022/05/22 01:01:06;;;;;;;0.00;0.00;;;9.80;99.90;;;;;;4904740;29;20364;-75
2022/05/22 01:03:32;;;;;;;0.00;0.00;;;9.90;99.90;;;;;;4905247;29;20493;-74
2022/05/22 01:06:05;;;;;;;0.00;0.00;;;10.10;99.90;;;;;;4905668;29;20044;-75
2022/05/22 01:08:33;;;;;;;0.00;0.00;;;10.00;99.90;;;;;;4889374;29;20040;-75
2022/05/22 01:11:05;;;;;;;0.00;0.00;;;10.00;99.90;;;;;;4907676;29;20044;-72
2022/05/22 01:13:36;;;;;;;0.00;0.00;;;9.90;99.90;;;;;;4907574;29;20048;-72
2022/05/22 01:16:04;;;;;;;0.00;0.00;;;9.90;99.90;;;;;;4903074;29;20063;-73
2022/05/22 01:18:30;;;;;;;0.00;0.00;;;9.80;99.90;;;;;;4887698;29;20115;-72
2022/05/22 01:20:56;;;;;;;0.00;0.00;;;9.90;99.90;;;;;;4905096;29;20048;-73
2022/05/22 01:23:23;;;;;;;0.00;0.00;;;10.00;99.90;;;;;;4888463;29;20440;-73
2022/05/22 01:25:49;;;;;;;0.00;0.00;;;10.00;99.90;;;;;;4904964;29;20131;-72
2022/05/22 01:28:17;;;;;;;0.00;0.00;;;9.80;99.90;;;;;;4905831;29;20103;-73
2022/05/22 01:30:43;;;;;;;0.00;0.00;;;9.70;99.90;;;;;;4888507;29;20091;-75
2022/05/22 01:33:09;;;;;;;0.00;0.00;;;9.70;99.90;;;;;;4887755;29;20127;-73
2022/05/22 01:35:38;;;;;;;0.00;0.00;;;9.70;99.90;;;;;;4887648;29;20048;-73
2022/05/22 01:38:05;;;;;;;0.00;0.00;;;9.80;99.90;;;;;;4904790;29;20044;-73
2022/05/22 01:40:32;;;;;;;0.00;0.00;;;9.80;99.90;;;;;;4904513;29;20107;-73
2022/05/22 01:42:58;;;;;;;0.00;0.00;;;9.80;99.90;;;;;;4904823;29;20063;-73
2022/05/22 01:45:25;;;;;;;0.00;0.00;;;9.80;99.90;;;;;;4906831;29;20045;-73
2022/05/22 01:47:51;;;;;;;0.00;0.00;;;9.60;99.90;;;;;;4912273;29;20047;-73
2022/05/22 01:50:17;;;;;;;0.00;0.00;;;9.60;99.90;;;;;;4904100;29;20040;-73
2022/05/22 01:52:43;;;;;;;0.00;0.00;;;9.30;99.90;;;;;;4888002;29;20779;-73
2022/05/22 01:55:11;;;;;;;0.00;0.00;;;9.20;99.90;;;;;;4904849;29;20127;-75
2022/05/22 01:57:37;;;;;;;0.00;0.00;;;9.50;99.90;;;;;;4903948;29;20510;-75
2022/05/22 02:00:05;;;;;;;0.00;0.00;;;9.30;99.90;;;;;;4905018;29;20051;-75
2022/05/22 02:02:31;;;;;;;0.00;0.00;;;9.30;99.90;;;;;;4886632;29;20083;-75
2022/05/22 02:04:57;;;;;;;0.00;0.00;;;9.30;99.90;;;;;;4903468;29;20036;-75
2022/05/22 02:10:08;;;;;;;0.00;0.00;;;9.30;99.90;;;;;;4904614;29;20108;-75
2022/05/22 02:12:34;;;;;;;0.00;0.00;;;9.20;99.90;;;;;;4904011;29;20080;-76
2022/05/22 02:15:00;;;;;;;0.00;0.00;;;9.30;99.90;;;;;;4904165;29;20567;-75
2022/05/22 02:17:26;;;;;;;0.00;0.00;;;9.20;99.90;;;;;;4903934;29;20604;-75
2022/05/22 02:19:52;;;;;;;0.00;0.00;;;9.20;99.90;;;;;;4904284;29;20091;-75
2022/05/22 02:22:17;;;;;;;0.00;0.00;;;9.20;99.90;;;;;;4904286;29;20135;-75
2022/05/22 02:24:43;;;;;;;0.00;0.00;;;9.10;99.90;;;;;;4905108;29;20436;-74
2022/05/22 02:27:08;;;;;;;0.00;0.00;;;9.20;99.90;;;;;;4888065;29;20040;-75
2022/05/22 02:29:35;;;;;;;0.00;0.00;;;8.90;99.90;;;;;;4903919;29;20415;-75
2022/05/22 02:32:01;;;;;;;0.00;0.00;;;9.10;99.90;;;;;;4886840;29;20052;-75
2022/05/22 02:34:27;;;;;;;0.00;0.00;;;9.00;99.90;;;;;;4904502;29;20075;-75
2022/05/22 02:36:53;;;;;;;0.00;0.00;;;9.00;99.90;;;;;;4904508;29;20044;-76
2022/05/22 02:39:19;;;;;;;0.00;0.00;;;8.90;99.90;;;;;;4904312;29;20040;-76
2022/05/22 02:41:45;;;;;;;0.00;0.00;;;8.90;99.90;;;;;;4887620;29;20103;-76
2022/05/22 02:44:11;;;;;;;0.00;0.00;;;9.10;99.90;;;;;;4903612;29;20751;-76
2022/05/22 02:46:37;;;;;;;0.00;0.00;;;8.80;99.90;;;;;;4913496;29;20047;-76
2022/05/22 02:49:02;;;;;;;0.00;0.00;;;8.80;99.90;;;;;;4904613;29;20520;-76
2022/05/22 02:51:28;;;;;;;0.00;0.00;;;8.70;99.90;;;;;;4887170;29;20047;-76
2022/05/22 02:53:54;;;;;;;0.00;0.00;;;9.00;99.90;;;;;;4904441;29;20122;-76
2022/05/22 02:56:25;;;;;;;0.00;0.00;;;8.80;99.90;;;;;;4903432;29;20055;-76
2022/05/22 02:58:52;;;;;;;0.00;0.00;;;8.50;99.90;;;;;;4887227;29;20063;-76
2022/05/22 03:01:17;;;;;;;0.00;0.00;;;8.60;99.90;;;;;;4886297;29;20063;-76
2022/05/22 03:03:43;;;;;;;0.00;0.00;;;8.50;99.90;;;;;;4907131;29;20036;-76
2022/05/22 03:08:53;;;;;;;0.00;0.00;;;8.60;99.90;;;;;;4907088;29;20068;-76
2022/05/22 03:11:19;;;;;;;0.00;0.00;;;8.50;99.90;;;;;;4907255;29;20048;-76
2022/05/22 03:13:45;;;;;;;0.00;0.00;;;8.60;99.90;;;;;;4907679;29;20060;-74
2022/05/22 03:16:11;;;;;;;0.00;0.00;;;8.50;99.90;;;;;;4906178;29;20078;-74
2022/05/22 03:18:36;;;;;;;0.00;0.00;;;8.80;99.90;;;;;;4907442;29;20080;-74
2022/05/22 03:21:02;;;;;;;0.00;0.00;;;8.60;99.90;;;;;;4910995;29;20048;-74
2022/05/22 03:23:28;;;;;;;0.00;0.00;;;8.60;99.90;;;;;;4910545;29;20521;-74
2022/05/22 03:25:54;;;;;;;0.00;0.00;;;8.70;99.90;;;;;;4907175;29;20091;-74
2022/05/22 03:28:23;;;;;;;0.00;0.00;;;9.20;99.90;;;;;;4906648;29;20140;-76
2022/05/22 03:30:49;;;;;;;0.00;0.00;;;8.70;99.90;;;;;;4906142;29;20052;-75
2022/05/22 03:33:15;;;;;;;0.00;0.00;;;8.80;99.90;;;;;;4907590;29;20044;-75
2022/05/22 03:35:41;;;;;;;0.00;0.00;;;8.60;99.90;;;;;;4907587;29;20204;-76
2022/05/22 03:38:07;;;;;;;0.00;0.00;;;8.60;99.90;;;;;;4890715;29;20044;-76
2022/05/22 03:40:35;;;;;;;0.00;0.00;;;8.50;99.90;;;;;;4907425;29;20495;-75
2022/05/22 03:43:01;;;;;;;0.00;0.00;;;8.50;99.90;;;;;;4906618;29;20106;-76
2022/05/22 03:45:27;;;;;;;0.00;0.00;;;8.50;99.90;;;;;;4909580;29;20052;-76
2022/05/22 03:47:52;;;;;;;0.00;0.00;;;8.60;99.90;;;;;;4914023;29;20059;-75
2022/05/22 03:50:18;;;;;;;0.00;0.00;;;8.60;99.90;;;;;;4889848;29;20048;-76
2022/05/22 03:52:47;;;;;;;0.00;0.00;;;8.60;99.90;;;;;;4906565;29;20048;-75
2022/05/22 03:55:14;;;;;;;0.00;0.00;;;8.70;99.90;;;;;;4907422;29;20048;-76
2022/05/22 03:57:44;;;;;;;0.00;0.00;;;8.80;99.90;;;;;;4906502;29;20147;-75
2022/05/22 04:00:11;;;;;;;0.00;0.00;;;9.10;99.90;;;;;;4905572;29;20051;-75
2022/05/22 04:02:37;;;;;;;0.00;0.00;;;9.10;99.90;;;;;;4906864;29;20075;-75
2022/05/22 04:05:07;;;;;;;0.00;0.00;;;8.80;99.90;;;;;;4906707;29;20488;-76
2022/05/22 04:07:36;;;;;;;0.00;0.00;;;8.80;99.90;;;;;;4906010;29;20075;-75
2022/05/22 04:10:03;;;;;;;0.00;0.00;;;8.90;99.90;;;;;;4890011;29;20385;-75
2022/05/22 04:12:28;;;;;;;0.00;0.00;;;8.90;99.90;;;;;;4889318;29;20122;-73
2022/05/22 04:14:54;;;;;;;0.00;0.00;;;9.00;99.90;;;;;;4904699;29;20056;-74
2022/05/22 04:17:20;;;;;;;0.00;0.00;;;9.00;99.90;;;;;;4906639;29;20490;-74
2022/05/22 04:19:45;;;;;;;0.00;0.00;;;9.10;99.90;;;;;;4906542;29;20044;-74
2022/05/22 04:22:11;;;;;;;0.00;0.00;;;9.10;99.90;;;;;;4906640;29;20404;-74
2022/05/22 04:27:21;;;;;;;0.00;0.00;;;9.40;99.90;;;;;;4906066;29;20086;-74
2022/05/22 04:29:47;;;;;;;0.10;0.10;;;9.00;99.90;;;;;;4905330;29;20084;-73
2022/05/22 04:32:12;;;;;;;0.00;0.00;;;9.10;99.90;;;;;;4906194;29;20555;-74
2022/05/22 04:34:38;;;;;;;0.00;0.00;;;9.10;99.90;;;;;;4905883;29;20090;-74
2022/05/22 04:37:04;;;;;;;0.10;0.10;;;9.20;99.90;;;;;;4906111;29;20428;-74
2022/05/22 04:39:30;;;;;;;0.10;0.10;;;9.20;99.90;;;;;;4905458;29;20056;-73
2022/05/22 04:41:55;;;;;;;0.00;0.00;;;9.30;99.90;;;;;;4888757;29;20048;-75
2022/05/22 04:44:21;;;;;;;0.00;0.00;;;9.60;99.90;;;;;;4906202;29;20070;-75
2022/05/22 04:46:46;;;;;;;0.00;0.00;;;10.00;99.90;;;;;;4898280;29;20484;-75
2022/05/22 04:49:12;;;;;;;0.00;0.00;;;10.60;99.90;;;;;;4905881;29;20044;-75
2022/05/22 04:51:38;;;;;;;0.00;0.00;;;10.90;99.90;;;;;;4905505;29;20055;-75
2022/05/22 04:54:04;;;;;;;0.00;0.00;;;11.50;99.90;;;;;;4905950;29;20050;-75
2022/05/22 04:56:30;;;;;;;0.03;0.03;;;11.30;99.90;;;;;;4904882;29;20056;-75
2022/05/22 04:58:56;;;;;;;0.00;0.00;;;11.50;99.90;;;;;;4905449;29;20708;-74
2022/05/22 05:01:22;;;;;;;0.00;0.00;;;11.80;99.90;;;;;;4904660;29;20048;-75
2022/05/22 05:03:47;;;;;;;0.35;0.35;;;12.10;99.90;;;;;;4905531;29;20127;-75
2022/05/22 05:06:13;;;;;;;0.00;0.00;;;12.10;99.90;;;;;;4888161;29;20466;-74
2022/05/22 05:08:39;;;;;;;0.03;0.03;;;12.30;99.90;;;;;;4905418;29;20048;-75
2022/05/22 05:11:05;;;;;;;0.00;0.00;;;12.40;99.90;;;;;;4888584;29;20055;-75
2022/05/22 05:13:31;;;;;;;0.00;0.00;;;12.60;99.90;;;;;;4904406;29;20056;-75
2022/05/22 05:15:59;;;;;;;0.00;0.00;;;12.70;99.90;;;;;;4905003;29;20084;-75
2022/05/22 05:18:25;;;;;;;0.00;0.00;;;12.80;99.90;;;;;;4887784;29;20287;-74
2022/05/22 05:20:51;;;;;;;0.00;0.00;;;12.70;99.90;;;;;;4905464;29;20048;-75
2022/05/22 05:23:17;;;;;;;0.00;0.00;;;13.00;99.90;;;;;;4904769;29;20392;-74
2022/05/22 05:25:42;;;;;;;0.00;0.00;;;13.10;99.90;;;;;;4905069;29;20056;-74
2022/05/22 05:28:08;;;;;;;0.00;0.00;;;13.40;99.90;;;;;;4888306;29;20051;-74
2022/05/22 05:30:34;;;;;;;0.00;0.00;;;13.60;99.90;;;;;;4905304;29;20044;-74
2022/05/22 05:32:59;;;;;;;0.20;0.20;;;13.70;99.90;;;;;;4907737;29;20412;-74
2022/05/22 05:35:25;;;;;;;0.00;0.00;;;13.80;99.90;;;;;;4889449;29;20479;-74
2022/05/22 05:37:51;;;;;;;0.00;0.00;;;14.10;99.90;;;;;;4905106;29;20552;-74
2022/05/22 05:40:17;;;;;;;0.00;0.00;;;14.10;99.90;;;;;;4904253;29;20474;-74
2022/05/22 05:42:43;;;;;;;0.00;0.00;;;14.20;99.90;;;;;;4888864;29;20062;-74
2022/05/22 05:45:11;;;;;;;0.00;0.00;;;14.20;99.90;;;;;;4906602;29;20120;-74
2022/05/22 05:47:37;;;;;;;0.00;0.00;;;14.30;99.90;;;;;;4912408;29;20103;-74
2022/05/22 05:50:03;;;;;;;0.10;0.10;;;14.40;99.90;;;;;;4904916;29;20472;-74
2022/05/22 05:52:29;;;;;;;0.00;0.00;;;14.50;99.90;;;;;;4904812;29;20047;-74
2022/05/22 05:54:55;;;;;;;0.00;0.00;;;14.60;99.90;;;;;;4905061;29;20044;-75
2022/05/22 05:57:21;;;;;;;1.30;0.05;;;14.60;99.90;;;;;;4904522;29;20048;-74
2022/05/22 05:59:46;;;;;;;0.00;0.00;;;14.50;99.90;;;;;;4903714;29;20101;-73
2022/05/22 06:02:15;;;;;;;0.00;0.00;;;14.70;99.90;;;;;;4904926;29;20052;-73
2022/05/22 06:04:41;;;;;;;0.00;0.00;;;14.70;99.90;;;;;;4904581;29;20064;-71
2022/05/22 06:07:08;;;;;;;0.00;0.00;;;14.50;99.90;;;;;;4904734;29;20048;-71
2022/05/22 06:09:35;;;;;;;0.00;0.00;;;14.80;99.90;;;;;;4904031;29;20059;-71
2022/05/22 06:12:01;;;;;;;1.08;0.20;;;14.70;99.90;;;;;;4904260;29;20099;-72
2022/05/22 06:14:26;;;;;;;0.13;0.00;;;14.60;99.90;;;;;;4903936;29;20516;-72
2022/05/22 06:16:52;;;;;;;0.10;0.05;;;14.60;99.90;;;;;;4903909;29;20048;-71
2022/05/22 06:19:53;;;;;;;0.00;0.00;;;14.50;99.90;;;;;;4904683;29;20048;-72
2022/05/22 06:22:03;;;;;;;0.00;0.00;;;14.50;99.90;;;;;;4890182;29;20082;-73
2022/05/22 06:24:29;;;;;;;0.00;0.00;;;14.80;99.90;;;;;;4904392;29;20472;-74
2022/05/22 06:26:55;;;;;;;0.00;0.00;;;15.10;99.90;;;;;;4904526;29;20048;-73
2022/05/22 06:29:20;;;;;;;0.00;0.00;;;15.00;99.90;;;;;;4871422;29;20064;-72
2022/05/22 06:31:46;;;;;;;0.00;0.00;;;15.00;99.90;;;;;;4903846;29;20055;-71
2022/05/22 06:34:11;;;;;;;0.32;0.32;;;15.10;99.90;;;;;;4904883;29;20686;-73
2022/05/22 06:36:37;;;;;;;0.20;0.20;;;15.30;99.90;;;;;;4905442;29;20048;-73
2022/05/22 06:41:47;;;;;;;0.03;0.03;;;15.70;99.90;;;;;;4907943;29;20067;-71
2022/05/22 06:44:12;;;;;;;0.00;0.00;;;15.90;99.90;;;;;;4907919;29;20044;-72
2022/05/22 06:46:38;;;;;;;0.00;0.00;;;15.70;99.90;;;;;;4917845;29;20503;-72
2022/05/22 06:49:04;;;;;;;0.13;0.10;;;15.40;99.90;;;;;;4891079;29;20511;-71
2022/05/22 06:51:30;;;;;;;0.10;0.10;;;15.80;99.90;;;;;;4906750;29;20079;-71
2022/05/22 06:53:55;;;;;;;0.00;0.00;;;16.00;99.90;;;;;;4907774;29;20106;-77
2022/05/22 06:56:21;;;;;;;0.00;0.00;;;15.80;99.90;;;;;;4907574;29;20044;-74
2022/05/22 06:58:47;;;;;;;0.00;0.00;;;16.00;99.90;;;;;;4908021;29;20628;-73
2022/05/22 07:01:17;;;;;;;0.00;0.00;;;16.60;99.90;;;;;;4890022;29;20048;-74
2022/05/22 07:03:43;;;;;;;0.00;0.00;;;16.20;99.90;;;;;;4908312;29;20048;-72
2022/05/22 07:06:08;;;;;;;0.10;0.10;;;16.20;99.90;;;;;;4910940;29;20044;-73
2022/05/22 07:08:34;;;;;;;0.00;0.00;;;16.20;99.90;;;;;;4944117;29;20058;-72
2022/05/22 07:13:44;;;;;;;0.00;0.00;;;16.50;99.90;;;;;;4935919;29;20063;-72
2022/05/22 07:16:09;;;;;;;0.00;0.00;;;16.70;99.90;;;;;;4937850;29;20051;-72
2022/05/22 07:18:35;;;;;;;0.00;0.00;;;16.60;99.90;;;;;;4943551;29;20671;-74
2022/05/22 07:21:01;;;;;;;0.00;0.00;;;16.90;99.90;;;;;;4945037;29;20055;-74
2022/05/22 07:23:26;;;;;;;0.00;0.00;;;16.90;99.90;;;;;;4944251;28;20561;-74
2022/05/22 07:25:53;;;;;;;0.00;0.00;;;16.80;99.90;;;;;;4945163;28;20121;-73
2022/05/22 07:28:19;;;;;;;0.00;0.00;;;17.10;99.90;;;;;;4942357;29;20062;-73
2022/05/22 07:30:45;;;;;;;0.00;0.00;;;17.30;99.90;;;;;;4942663;29;20073;-73
2022/05/22 07:33:11;;;;;;;0.00;0.00;;;17.60;99.90;;;;;;4944842;29;20134;-73
2022/05/22 07:35:37;;;;;;;0.00;0.00;;;17.40;99.90;;;;;;4944819;29;20162;-73
2022/05/22 07:38:04;;;;;;;0.00;0.00;;;16.80;99.90;;;;;;4945019;29;20043;-74
2022/05/22 07:40:30;;;;;;;0.00;0.00;;;16.30;99.90;;;;;;4927357;29;20051;-73
2022/05/22 07:42:56;;;;;;;0.00;0.00;;;15.90;99.90;;;;;;4945225;28;20043;-73
2022/05/22 07:45:22;;;;;;;0.00;0.00;;;15.60;99.90;;;;;;4930726;28;20044;-73
2022/05/22 07:47:48;;;;;;;0.00;0.00;;;15.60;99.90;;;;;;4914894;29;20048;-73
2022/05/22 07:50:22;;;;;;;0.10;0.10;;;15.70;99.90;;;;;;4906759;29;20064;-73
2022/05/22 07:52:49;;;;;;;0.00;0.00;;;15.70;99.90;;;;;;4875578;29;20404;-73
2022/05/22 07:55:17;;;;;;;0.00;0.00;;;16.30;99.90;;;;;;4890095;29;20419;-74
2022/05/22 07:57:44;;;;;;;0.00;0.00;;;17.20;99.90;;;;;;4906423;29;20040;-73
2022/05/22 08:00:12;;;;;;;0.00;0.00;;;17.40;99.90;;;;;;4918775;29;20110;-73
2022/05/22 08:02:38;;;;;;;0.00;0.00;;;17.60;99.90;;;;;;4927352;29;20051;-73
2022/05/22 08:05:05;;;;;;;0.00;0.00;;;17.90;99.90;;;;;;4943333;28;20142;-73
2022/05/22 08:07:32;;;;;;;0.00;0.00;;;17.80;99.90;;;;;;4943934;29;20051;-72
2022/05/22 08:09:58;;;;;;;0.00;0.00;;;17.70;99.90;;;;;;4911454;29;20514;-73
2022/05/22 08:12:24;;;;;;;0.00;0.00;;;17.20;99.90;;;;;;4926324;29;20047;-73
2022/05/22 08:14:50;;;;;;;0.00;0.00;;;17.20;99.90;;;;;;4942833;29;20118;-72
2022/05/22 08:17:19;;;;;;;0.00;0.00;;;16.50;99.90;;;;;;4944087;29;20054;-72
2022/05/22 08:19:45;;;;;;;0.00;0.00;;;16.50;99.90;;;;;;4944548;29;20047;-73
2022/05/22 08:22:11;;;;;;;0.00;0.00;;;16.20;99.90;;;;;;4926775;29;20058;-73
2022/05/22 08:24:37;;;;;;;0.00;0.00;;;16.30;99.90;;;;;;4944372;29;20047;-73
2022/05/22 08:27:03;;;;;;;0.00;0.00;;;17.10;99.90;;;;;;4944123;29;20047;-72
2022/05/22 08:29:29;;;;;;;0.00;0.00;;;17.50;99.90;;;;;;4925311;29;20044;-72
2022/05/22 08:31:54;;;;;;;0.00;0.00;;;18.10;99.90;;;;;;4926671;29;20133;-72
2022/05/22 08:34:20;;;;;;;0.00;0.00;;;18.60;99.90;;;;;;4926715;29;20039;-72
2022/05/22 08:36:48;;;;;;;0.00;0.00;;;18.60;99.90;;;;;;4943773;29;20505;-71
2022/05/22 08:39:13;;;;;;;0.03;0.03;;;18.30;99.90;;;;;;4912374;29;20134;-73
2022/05/22 08:41:46;;;;;;;0.00;0.00;;;17.70;99.90;;;;;;4923133;29;20126;-74
2022/05/22 08:44:18;;;;;;;0.00;0.00;;;17.50;99.90;;;;;;4906613;29;20397;-72
2022/05/22 08:47:06;;;;;;;0.00;0.00;;;17.70;99.90;;;;;;4899546;29;20087;-70
2022/05/22 08:49:35;;;;;;;0.00;0.00;;;18.50;99.90;;;;;;4901738;29;20405;-68
2022/05/22 08:52:24;;;;;;;0.00;0.00;;;19.00;99.90;;;;;;4906372;29;20063;-68
2022/05/22 08:55:00;;;;;;;0.00;0.00;;;19.00;99.90;;;;;;4907060;29;20075;-70
2022/05/22 09:00:19;;;;;;;0.00;0.00;;;18.00;99.90;;;;;;4921957;29;20054;-71
2022/05/22 09:02:52;;;;;;;0.00;0.00;;;17.50;99.90;;;;;;4923877;29;20044;-70
2022/05/22 09:05:24;;;;;;;0.00;0.00;;;17.30;99.90;;;;;;4925898;29;20567;-70
2022/05/22 09:07:55;;;;;;;0.00;0.00;;;17.50;99.90;;;;;;4942363;29;20517;-69
2022/05/22 09:10:33;;;;;;;0.08;0.08;;;17.30;99.90;;;;;;4942248;28;20070;-71
2022/05/22 09:13:15;;;;;;;0.00;0.00;;;17.30;99.90;;;;;;4942584;29;20426;-71
2022/05/22 09:15:48;;;;;;;0.47;0.22;;;17.70;99.90;;;;;;4941939;28;20086;-71
2022/05/22 09:18:29;;;;;;;0.00;0.00;;;18.30;99.90;;;;;;4943709;29;20495;-71
2022/05/22 09:20:57;;;;;;;0.00;0.00;;;19.00;99.90;;;;;;4941576;28;20055;-71
2022/05/22 09:23:35;;;;;;;0.00;0.00;;;19.00;99.90;;;;;;4942062;29;20054;-71
2022/05/22 09:26:07;;;;;;;0.00;0.00;;;18.90;99.90;;;;;;4938073;29;20039;-71
2022/05/22 09:29:03;;;;;;;0.00;0.00;;;19.00;99.90;;;;;;4942905;29;20134;-72
2022/05/22 09:31:44;;;;;;;0.00;0.00;;;19.00;99.90;;;;;;4924723;29;20054;-71
2022/05/22 09:34:29;;;;;;;0.00;0.00;;;18.90;99.90;;;;;;4942677;29;20047;-71
2022/05/22 09:37:20;;;;;;;;;;;18.40;99.90;;;;;;4942463;28;20051;-72
2022/05/22 09:39:46;;;;;;;0.00;0.00;;;18.50;99.90;;;;;;4940180;29;19966;-72
2022/05/22 09:42:22;;;;;;;0.00;0.00;;;18.50;99.90;;;;;;4942598;29;20093;-72
2022/05/22 09:44:56;;;;;;;0.00;0.00;;;18.30;99.90;;;;;;4935170;29;20051;-71
2022/05/22 09:47:58;;;;;;;0.00;0.00;;;18.30;99.90;;;;;;4912321;29;20666;-71
2022/05/22 09:50:48;;;;;;;0.00;0.00;;;18.40;99.90;;;;;;4904457;29;20052;-72
2022/05/22 09:53:28;;;;;;;0.00;0.00;;;18.50;99.90;;;;;;4905694;29;20126;-71
2022/05/22 09:55:59;;;;;;;0.00;0.00;;;18.60;99.90;;;;;;4907128;29;20080;-72
2022/05/22 09:58:31;;;;;;;0.00;0.00;;;19.20;99.90;;;;;;4904597;29;20123;-72
2022/05/22 10:01:18;;;;;;;0.00;0.00;;;19.50;99.90;;;;;;4903837;29;20055;-70
2022/05/22 10:03:50;;;;;;;0.00;0.00;;;19.40;99.90;;;;;;4888105;29;20119;-70
2022/05/22 10:06:49;;;;;;;0.00;0.00;;;19.80;99.90;;;;;;4919340;29;20174;-71
2022/05/22 10:09:22;;;;;;;0.00;0.00;;;19.50;99.90;;;;;;4940106;28;20051;-68
2022/05/22 10:12:30;;;;;;;0.00;0.00;;;19.70;99.90;;;;;;4934375;28;20054;-73
2022/05/22 10:15:25;;;;;;;0.00;0.00;;;19.90;99.90;;;;;;4928100;29;20133;-71
2022/05/22 10:18:16;;;;;;;0.00;0.00;;;19.50;99.90;;;;;;4945690;29;20494;-71
2022/05/22 10:20:56;;;;;;;0.00;0.00;;;19.20;99.90;;;;;;4927881;29;20047;-70
2022/05/22 10:23:55;;;;;;;0.00;0.00;;;19.50;99.90;;;;;;4928473;29;20101;-70
2022/05/22 10:26:36;;;;;;;0.00;0.00;;;19.80;99.90;;;;;;4928401;29;20049;-70
2022/05/22 10:29:12;;;;;;;0.00;0.00;;;19.90;99.90;;;;;;4945220;29;20160;-74
2022/05/22 10:32:00;;;;;;;0.00;0.00;;;19.90;99.90;;;;;;4945778;29;20043;-73
2022/05/22 10:34:43;;;;;;;0.00;0.00;;;19.90;99.90;;;;;;4931253;29;20047;-74
2022/05/22 10:37:33;;;;;;;0.00;0.00;;;19.90;99.90;;;;;;4929467;29;20047;-73
2022/05/22 10:40:06;;;;;;;0.00;0.00;;;19.70;99.90;;;;;;4941394;29;20479;-75
2022/05/22 10:42:46;;;;;;;0.00;0.00;;;19.60;99.90;;;;;;4928367;29;20051;-75
2022/05/22 10:45:33;;;;;;;0.00;0.00;;;19.70;99.90;;;;;;4914508;29;20083;-72
2022/05/22 10:48:17;;;;;;;0.00;0.00;;;20.10;99.90;;;;;;4903018;29;20059;-77
2022/05/22 10:50:51;;;;;;;0.00;0.00;;;20.60;99.90;;;;;;4927028;29;20051;-75
2022/05/22 10:53:29;;;;;;;0.00;0.00;;;20.90;99.90;;;;;;4909008;29;20142;-76
2022/05/22 10:56:01;;;;;;;0.00;0.00;;;21.30;99.90;;;;;;4908318;29;20055;-76
2022/05/22 10:58:35;;;;;;;0.00;0.00;;;21.40;99.90;;;;;;4926488;29;20039;-77
2022/05/22 11:01:06;;;;;;;1.40;1.30;;;21.50;99.90;;;;;;4925702;29;20059;-77
2022/05/22 11:03:34;;;;;;;0.00;0.00;;;21.20;99.90;;;;;;4925932;29;20111;-76
2022/05/22 11:06:03;;;;;;;0.00;0.00;;;21.40;99.90;;;;;;4909084;29;20094;-76
2022/05/22 11:08:34;;;;;;;0.00;0.00;;;21.30;99.90;;;;;;4909133;29;20098;-76
2022/05/22 11:11:15;;;;;;;0.00;0.00;;;21.20;99.90;;;;;;4909072;29;20052;-76
2022/05/22 11:13:41;;;;;;;0.00;0.00;;;21.20;99.90;;;;;;4925670;29;20761;-76
2022/05/22 11:16:12;;;;;;;0.00;0.00;;;21.40;99.90;;;;;;4908734;29;20407;-75
2022/05/22 11:18:37;;;;;;;0.00;0.00;;;21.60;99.90;;;;;;4908474;29;20043;-76
2022/05/22 11:21:16;;;;;;;0.00;0.00;;;21.60;99.90;;;;;;4926123;29;20184;-76
2022/05/22 11:23:53;;;;;;;0.00;0.00;;;21.80;99.90;;;;;;4907112;29;20122;-75
2022/05/22 11:26:40;;;;;;;0.00;0.00;;;22.20;99.90;;;;;;4924864;29;20054;-74
2022/05/22 11:29:11;;;;;;;0.00;0.00;;;22.50;99.90;;;;;;4907643;29;20490;-75
2022/05/22 11:31:46;;;;;;;0.00;0.00;;;22.70;99.90;;;;;;4909211;29;20059;-75
2022/05/22 11:34:20;;;;;;;0.00;0.00;;;23.00;99.90;;;;;;4916898;29;20047;-76
2022/05/22 11:36:46;;;;;;;0.08;0.08;;;23.10;99.90;;;;;;4925658;29;20044;-78
2022/05/22 11:40:02;;;;;;;0.00;0.00;;;22.90;99.90;;;;;;4922744;29;20054;-76
2022/05/22 11:42:34;;;;;;;0.00;0.00;;;23.10;99.90;;;;;;4902392;29;20047;-76
2022/05/22 11:45:18;;;;;;;0.00;0.00;;;23.20;99.90;;;;;;4903799;29;20179;-76
2022/05/22 11:48:07;;;;;;;0.00;0.00;;;23.30;99.90;;;;;;4926368;29;20048;-76
2022/05/22 11:50:48;;;;;;;0.00;0.00;;;23.20;99.90;;;;;;4940530;29;20047;-75
2022/05/22 11:53:28;;;;;;;0.00;0.00;;;22.80;99.90;;;;;;4924254;29;20049;-78
2022/05/22 11:56:18;;;;;;;0.00;0.00;;;22.60;99.90;;;;;;4906970;29;20080;-78
2022/05/22 11:59:17;;;;;;;0.00;0.00;;;22.70;99.90;;;;;;4905780;29;20044;-78
2022/05/22 12:01:58;;;;;;;0.00;0.00;;;22.90;99.90;;;;;;4940547;29;20054;-77
2022/05/22 12:04:30;;;;;;;0.00;0.00;;;22.60;99.90;;;;;;4941275;28;20051;-77
2022/05/22 12:07:15;;;;;;;0.00;0.00;;;22.50;99.90;;;;;;4952758;29;20111;-78
2022/05/22 12:10:01;;;;;;;0.00;0.00;;;22.30;99.90;;;;;;4928630;29;20126;-77
2022/05/22 12:13:01;;;;;;;0.00;0.00;;;22.60;99.90;;;;;;4927247;29;20043;-78
2022/05/22 12:15:49;;;;;;;0.00;0.00;;;22.70;99.90;;;;;;4926277;29;20057;-78
2022/05/22 12:18:29;;;;;;;0.00;0.00;;;22.70;99.90;;;;;;4945134;29;20050;-78
2022/05/22 12:21:01;;;;;;;0.00;0.00;;;22.80;99.90;;;;;;4944542;29;20799;-78
2022/05/22 12:23:37;;;;;;;0.00;0.00;;;23.00;99.90;;;;;;4943748;28;20055;-78
2022/05/22 12:26:07;;;;;;;0.00;0.00;;;22.80;99.90;;;;;;4927177;29;20066;-78
2022/05/22 12:28:39;;;;;;;0.00;0.00;;;22.60;99.90;;;;;;4925291;29;20056;-72
2022/05/22 12:31:25;;;;;;;0.00;0.00;;;22.40;99.90;;;;;;4944322;29;20090;-72
2022/05/22 12:33:53;;;;;;;0.00;0.00;;;22.30;99.90;;;;;;4925986;29;20062;-71
2022/05/22 12:36:24;;;;;;;0.00;0.00;;;22.10;99.90;;;;;;4944015;29;20406;-71
2022/05/22 12:39:07;;;;;;;0.00;0.00;;;21.80;99.90;;;;;;4944021;29;20102;-71
2022/05/22 12:41:49;;;;;;;0.00;0.00;;;21.30;99.90;;;;;;4943275;29;20390;-71
2022/05/22 12:44:15;;;;;;;0.00;0.00;;;21.60;99.90;;;;;;4925905;29;20093;-71
2022/05/22 12:46:41;;;;;;;0.00;0.00;;;21.90;99.90;;;;;;4916937;29;20306;-71
2022/05/22 12:49:23;;;;;;;0.00;0.00;;;22.30;99.90;;;;;;4939243;29;20523;-70
2022/05/22 12:52:26;;;;;;;0.00;0.00;;;22.30;99.90;;;;;;4923086;29;20063;-71
2022/05/22 12:55:29;;;;;;;0.00;0.00;;;22.40;99.90;;;;;;4925007;29;20038;-71
2022/05/22 12:57:56;;;;;;;0.00;0.00;;;21.80;99.90;;;;;;4924478;29;20059;-71
2022/05/22 13:00:40;;;;;;;0.00;0.00;;;21.60;99.90;;;;;;4923379;29;20102;-70
2022/05/22 13:03:26;;;;;;;0.00;0.00;;;21.60;99.90;;;;;;4925073;28;20062;-71
2022/05/22 13:06:07;;;;;;;0.05;0.05;;;21.80;99.90;;;;;;4925646;29;20051;-71
2022/05/22 13:08:40;;;;;;;0.00;0.00;;;22.20;99.90;;;;;;4943354;29;20278;-70
2022/05/22 13:11:14;;;;;;;0.00;0.00;;;22.10;99.90;;;;;;4942738;29;20122;-71
2022/05/22 13:13:49;;;;;;;0.00;0.00;;;22.40;99.90;;;;;;4936163;29;20063;-70
2022/05/22 13:16:28;;;;;;;0.15;0.10;;;22.70;99.90;;;;;;4911825;29;20063;-71
2022/05/22 13:18:55;;;;;;;0.00;0.00;;;22.60;99.90;;;;;;4893666;29;20087;-71
2022/05/22 13:21:31;;;;;;;0.00;0.00;;;22.60;99.90;;;;;;4912022;29;20082;-71
2022/05/22 13:24:19;;;;;;;0.00;0.00;;;22.40;99.90;;;;;;4913317;29;20400;-71
2022/05/22 13:27:03;;;;;;;0.00;0.00;;;22.20;99.90;;;;;;4898677;29;20096;-69